Port Barre, Louisiana
Current Conditions -  °F | °C
As of 1:35 PM on Friday 28 Nov 2014 (Local Time) from KOPL Reporting Station
Clear Clear  
Wind Chill: 62°   Ceiling: Unl
Heat Index: 62°   Visibility: 10mi
Dew Point: 34°   Wind: 6mph
Humidity: 35%   Direction: 190°S
Pressure: 30.29"   Gusts: NA
Location:  30.56°N, 91.95°W
Report Text: KOPL 281935Z AUTO 19005KT 10SM CLR 17/01 A3029 RMK AO2 T01680010
Loading
Personal Weather Stations






























Interactive Weather Map New forecast layout! Learn more

10-Day Weather Forecast

Advertisements
Track Severe Weather on mobile